»·PEaware :: N123SJ KWHP-KSBD

N123SJ :: KWHP-KSBD

FLIGHT INFORMATION

Flight Status: Arrived
Operator: Privately registered:
United States
More flights under this callsign
Pilot: Napoleon Ma Jr J. (21170)
Aircraft: CESSNA 172 SKYHAWK
(C172)
More flights by this aircraft type
Origin: KWHP Whiteman
United States
Destination: KSBD San Bernardino Intl
United States
More flights between these airports :: More routes between these airports
Route: +VNY V186 PDZ
File this flight plan on PilotEdge
Remarks:
Altitude:
(Current/Filed)
5,000ft
Speed:
(Current/Filed)
115kts
Departed: 29-Dec-18 04:18 PM
Arrived: 29-Dec-18 05:07 PM
Distance/Time
Traveled:
60nm/0:49
Distance/Time
To Go:
Arrived

Flight Plot

Page will automatically refresh every two minutes.

Flight plan parsing failed; only flown route is shown


Map Options




Map Legend


Flown Route
Filed Route
Departure Airport
Arrival Airport
Navaid (VOR, NDB)
Fix

Horizontal Profiles

Position Reports

Time Latitude Longitude Heading Altitude Ground
Speed
29-Dec-18 16:08 34.260370 -118.413372 319 997ft 0kts
29-Dec-18 16:09 34.260370 -118.413372 319 997ft 0kts
29-Dec-18 16:10 34.260370 -118.413372 319 997ft 0kts
29-Dec-18 16:11 34.260370 -118.413372 319 997ft 0kts
29-Dec-18 16:12 34.260371 -118.413373 320 997ft 0kts
29-Dec-18 16:13 34.259607 -118.413006 154 992ft 8kts
29-Dec-18 16:14 34.257283 -118.410675 138 979ft 13kts
29-Dec-18 16:15 34.255709 -118.409003 139 971ft 0kts
29-Dec-18 16:16 34.255157 -118.409088 286 969ft 8kts
29-Dec-18 16:17 34.266472 -118.422926 304 1671ft 77kts
29-Dec-18 16:18 34.267787 -118.452084 270 2710ft 99kts
29-Dec-18 16:19 34.267379 -118.487342 268 3749ft 107kts
29-Dec-18 16:20 34.275294 -118.516690 355 4563ft 105kts
29-Dec-18 16:21 34.286955 -118.543763 235 4940ft 123kts
29-Dec-18 16:22 34.262828 -118.535313 133 4937ft 105kts
29-Dec-18 16:23 34.240188 -118.512502 133 4989ft 113kts
29-Dec-18 16:24 34.219325 -118.485137 106 5004ft 104kts
29-Dec-18 16:25 34.211443 -118.453666 104 4995ft 94kts
29-Dec-18 16:26 34.203772 -118.424349 107 5027ft 95kts
29-Dec-18 16:27 34.193468 -118.393457 107 5000ft 103kts
29-Dec-18 16:28 34.182752 -118.360307 107 4988ft 112kts
29-Dec-18 16:29 34.171016 -118.325561 105 4985ft 112kts
29-Dec-18 16:30 34.162795 -118.296105 106 4980ft 86kts
29-Dec-18 16:31 34.154926 -118.267528 109 4988ft 94kts
29-Dec-18 16:32 34.146688 -118.235951 108 5031ft 101kts
29-Dec-18 16:33 34.136950 -118.206252 111 5003ft 85kts
29-Dec-18 16:34 34.128975 -118.179980 111 5010ft 88kts
29-Dec-18 16:35 34.120841 -118.151129 111 4960ft 90kts
29-Dec-18 16:36 34.113652 -118.124102 114 5000ft 83kts
29-Dec-18 16:37 34.105994 -118.096400 113 5024ft 91kts
29-Dec-18 16:38 34.096110 -118.062089 111 5064ft 121kts
29-Dec-18 16:39 34.084518 -118.023995 116 4991ft 115kts
29-Dec-18 16:40 34.070322 -117.991039 113 5017ft 111kts
29-Dec-18 16:41 34.059594 -117.955196 108 5022ft 114kts
29-Dec-18 16:42 34.048912 -117.918701 107 5022ft 117kts
29-Dec-18 16:43 34.037301 -117.881800 107 5022ft 117kts
29-Dec-18 16:44 34.025077 -117.845461 107 5016ft 115kts
29-Dec-18 16:45 34.013047 -117.810120 109 5005ft 114kts
29-Dec-18 16:46 34.000324 -117.774916 108 4972ft 115kts
29-Dec-18 16:48 33.988011 -117.739631 104 4958ft 113kts
29-Dec-18 16:49 33.980232 -117.703271 107 4922ft 115kts
29-Dec-18 16:50 33.968082 -117.667575 109 4896ft 116kts
29-Dec-18 16:51 33.954610 -117.632556 95 4864ft 114kts
29-Dec-18 16:52 33.943788 -117.594744 110 4802ft 123kts
29-Dec-18 16:53 33.928535 -117.557259 100 4798ft 125kts
29-Dec-18 16:54 33.919091 -117.522314 59 4776ft 91kts
29-Dec-18 16:55 33.940471 -117.519333 20 4663ft 88kts
29-Dec-18 16:56 33.963364 -117.507334 21 3903ft 92kts
29-Dec-18 16:57 33.985782 -117.496154 19 3914ft 88kts
29-Dec-18 16:58 34.008087 -117.485334 22 3940ft 96kts
29-Dec-18 16:59 34.026738 -117.462125 72 3949ft 112kts
29-Dec-18 17:00 34.037091 -117.428222 66 3603ft 105kts
29-Dec-18 17:01 34.047414 -117.395184 69 3351ft 106kts
29-Dec-18 17:02 34.057982 -117.362424 70 3262ft 98kts
29-Dec-18 17:03 34.066084 -117.333028 68 2471ft 89kts
29-Dec-18 17:04 34.074097 -117.306030 73 2045ft 78kts
29-Dec-18 17:05 34.081002 -117.283186 72 1681ft 73kts
29-Dec-18 17:06 34.087304 -117.261975 71 1340ft 68kts
29-Dec-18 17:06 34.092182 -117.245322 72 1092ft 37kts
29-Dec-18 17:07 34.094540 -117.242044 358 1099ft 4kts
29-Dec-18 17:09 34.095542 -117.240288 69 1103ft 7kts
29-Dec-18 17:09 34.096727 -117.236269 70 1114ft 12kts
29-Dec-18 17:10 34.098999 -117.228581 70 1135ft 26kts
29-Dec-18 17:11 34.100777 -117.224488 349 1147ft 8kts
29-Dec-18 17:12 34.101493 -117.224833 278 1146ft 0kts

Navigation Log

Ident Type
Flight plan parsing failed, navigation log unavailable